Time;durP1;ratioP1;P1;durP2;ratioP2;P2;SDS_P1;SDS_P2;PMS_P1;PMS_P2;Temp;Humidity;BMP_temperature;BMP_pressure;BME280_temperature;BME280_humidity;BME280_pressure;Samples;Min_cycle;Max_cycle;Signal;HPM_P1;HPM_P2
2023/11/13 09:09:39;;;;;;;9.55;7.20;;;;;;;11.98;65.90;94801.13;6191847;23;20029;-86
2023/11/13 09:12:10;;;;;;;9.32;6.72;;;;;;;11.46;67.91;94810.28;6158149;23;20095;-86
2023/11/13 09:14:42;;;;;;;12.70;8.82;;;;;;;11.95;66.58;94817.13;6158508;23;20001;-86
2023/11/13 09:17:12;;;;;;;11.55;7.40;;;;;;;12.14;65.64;94810.38;6158388;23;20001;-87
2023/11/13 17:49:16;;;;;;;8.95;6.60;;;;;;;13.95;64.63;94612.31;6181481;23;20028;-84
2023/11/13 17:51:42;;;;;;;5.25;4.75;;;;;;;14.20;64.32;94612.31;6186086;23;20012;-85
2023/11/13 17:54:07;;;;;;;6.25;4.20;;;;;;;14.39;64.05;94603.50;6186040;23;19997;-85
2023/11/13 17:56:35;;;;;;;9.43;6.13;;;;;;;14.35;64.04;94584.00;6185631;23;20008;-86
2023/11/13 17:59:00;;;;;;;8.30;5.70;;;;;;;14.29;65.00;94587.47;6161429;23;20015;-84
2023/11/13 18:03:53;;;;;;;3.42;2.10;;;;;;;13.79;67.21;94570.00;6162407;23;20024;-86
2023/11/13 18:06:23;;;;;;;5.00;2.42;;;;;;;14.32;65.52;94571.38;6130810;23;20051;-85
2023/11/13 18:08:49;;;;;;;4.18;2.92;;;;;;;14.77;64.12;94602.50;6155332;23;20013;-84
2023/11/13 18:11:15;;;;;;;7.00;5.63;;;;;;;14.77;64.35;94594.66;6107137;23;20024;-85
2023/11/13 18:13:40;;;;;;;6.10;4.35;;;;;;;14.70;64.66;94587.91;6131827;23;20060;-85
2023/11/13 18:26:17;;;;;;;7.20;5.50;;;;;;;14.70;65.02;94607.03;6182998;23;20013;-87
2023/11/13 18:28:44;;;;;;;3.30;2.63;;;;;;;14.89;64.55;94612.25;6131242;23;20028;-85
2023/11/13 18:31:10;;;;;;;2.50;1.90;;;;;;;15.06;64.16;94618.53;6106995;23;20145;-86
2023/11/13 18:33:40;;;;;;;2.58;1.50;;;;;;;15.05;64.43;94637.84;6107493;23;20017;-85
2023/11/13 18:36:07;;;;;;;2.35;1.48;;;;;;;15.12;64.26;94630.72;6108613;23;20009;-85
2023/11/13 18:38:32;;;;;;;2.42;2.10;;;;;;;15.32;63.74;94642.78;6155404;23;20001;-85
2023/11/13 18:40:58;;;;;;;2.78;2.40;;;;;;;15.22;64.04;94631.00;6130513;23;20012;-85
2023/11/13 18:43:24;;;;;;;2.75;2.25;;;;;;;15.37;63.53;94635.06;6106769;23;20013;-84
2023/11/13 18:45:55;;;;;;;2.42;2.00;;;;;;;15.47;63.28;94630.09;6130578;23;20036;-85
2023/11/13 18:48:20;;;;;;;;;;;;;;;15.15;64.47;94629.47;6130914;23;20015;-84
2023/11/13 19:13:53;;;;;;;19.35;11.70;;;;;;;14.54;66.73;94584.81;6169640;23;20016;-85
2023/11/13 19:16:19;;;;;;;26.25;14.57;;;;;;;14.54;67.07;94590.03;6131285;23;20009;-85
2023/11/13 19:18:47;;;;;;;32.40;15.95;;;;;;;14.62;66.47;94578.50;6101374;23;20033;-84
2023/11/13 19:21:19;;;;;;;88.88;40.67;;;;;;;14.63;66.66;94577.50;6125607;23;20009;-85
2023/11/13 19:23:44;;;;;;;4.95;3.83;;;;;;;14.42;67.68;94582.13;6125377;23;20085;-85
2023/11/13 19:26:10;;;;;;;40.33;19.67;;;;;;;14.66;66.72;94577.88;6135021;23;20044;-85
2023/11/13 19:28:36;;;;;;;40.33;21.25;;;;;;;14.94;65.84;94588.84;6101371;23;20018;-85
2023/11/13 19:31:02;;;;;;;23.40;13.65;;;;;;;15.16;64.84;94586.56;6125983;23;20012;-85
2023/11/13 19:33:29;;;;;;;6.13;4.60;;;;;;;15.19;64.50;94579.06;6124903;23;20006;-84
2023/11/13 19:35:55;;;;;;;17.38;9.90;;;;;;;15.32;64.27;94569.41;6077032;23;20079;-85
2023/11/13 19:38:20;;;;;;;11.57;8.05;;;;;;;15.42;63.72;94570.50;6125435;23;20013;-85
2023/11/13 19:40:46;;;;;;;14.65;10.07;;;;;;;15.49;62.99;94564.34;6077367;23;20095;-85
2023/11/13 19:43:11;;;;;;;14.27;9.20;;;;;;;15.53;63.23;94575.97;6125236;23;20065;-86
2023/11/13 19:45:37;;;;;;;19.83;13.20;;;;;;;15.40;63.70;94556.00;6125216;23;20009;-85
2023/11/13 19:50:29;;;;;;;4.03;2.92;;;;;;;15.42;63.46;94544.28;6152040;23;20025;-85
2023/11/13 19:52:54;;;;;;;6.95;3.60;;;;;;;15.56;63.22;94523.13;6101423;23;20033;-86
2023/11/13 19:55:20;;;;;;;23.30;13.82;;;;;;;15.52;63.11;94516.72;6125214;23;20005;-84
2023/11/13 19:57:49;;;;;;;9.45;5.15;;;;;;;15.36;63.31;94492.75;6101625;23;20017;-85
2023/11/13 20:09:15;;;;;;;50.30;21.02;;;;;;;15.41;63.44;94469.28;6157393;23;20036;-85
2023/11/13 20:14:06;;;;;;;92.18;45.72;;;;;;;15.18;64.41;94472.69;6150568;23;20104;-85
2023/11/13 20:16:34;;;;;;;37.30;21.95;;;;;;;15.56;62.64;94479.34;6101567;23;20005;-84
2023/11/13 20:18:59;;;;;;;31.83;18.98;;;;;;;15.48;63.07;94479.69;6125305;23;20013;-84
2023/11/13 20:21:27;;;;;;;32.60;19.10;;;;;;;15.55;62.43;94469.09;6101500;23;20021;-85
2023/11/13 20:23:53;;;;;;;20.05;12.55;;;;;;;15.62;62.03;94478.44;6101436;23;20013;-85
2023/11/13 20:49:37;;;;;;;9.70;5.65;;;;;;;15.22;64.04;94544.56;6153468;23;20028;-85
2023/11/13 20:52:04;;;;;;;7.38;5.57;;;;;;;15.30;63.20;94547.88;6102572;23;20072;-85
2023/11/13 20:54:29;;;;;;;7.20;5.53;;;;;;;15.14;63.00;94544.88;6151469;23;20056;-85
2023/11/13 20:56:56;;;;;;;6.45;5.72;;;;;;;15.06;63.46;94529.47;6126350;23;20006;-85
2023/11/13 20:59:23;;;;;;;8.50;5.90;;;;;;;14.91;64.61;94531.66;6152242;23;20013;-85
2023/11/13 21:01:48;;;;;;;5.57;5.07;;;;;;;14.59;65.26;94518.78;6152385;23;20016;-85
2023/11/13 21:53:25;;;;;;;1.83;1.00;;;;;;;14.91;63.81;94469.66;6151149;23;20036;-85
2023/11/13 21:55:51;;;;;;;1.48;1.10;;;;;;;14.94;63.85;94463.16;6126444;23;20033;-85
